Time;durP1;ratioP1;P1;durP2;ratioP2;P2;SDS_P1;SDS_P2;PMS_P1;PMS_P2;Temp;Humidity;BMP_temperature;BMP_pressure;BME280_temperature;BME280_humidity;BME280_pressure;Samples;Min_cycle;Max_cycle;Signal;HPM_P1;HPM_P2
2022/06/09 00:01:15;;;;;;;1.57;1.17;;;;;;;-145.69;100.00;71221.31;4995442;28;20255;-78
2022/06/09 00:03:46;;;;;;;2.27;1.00;;;;;;;-145.69;100.00;71227.28;4995644;28;20209;-79
2022/06/09 00:06:15;;;;;;;2.07;1.33;;;;;;;-145.69;100.00;71223.31;4995416;28;20336;-79
2022/06/09 00:08:47;;;;;;;1.53;1.30;;;;;;;-145.69;100.00;71209.38;4995154;28;20197;-79
2022/06/09 00:11:18;;;;;;;1.47;1.33;;;;;;;-145.69;100.00;71203.41;4995317;28;20205;-79
2022/06/09 00:13:45;;;;;;;1.70;1.30;;;;;;;-145.69;100.00;71195.47;4995117;28;20718;-79
2022/06/09 00:16:13;;;;;;;2.27;1.20;;;;;;;-145.69;100.00;71203.41;4994811;28;20201;-79
2022/06/09 00:18:40;;;;;;;4.03;1.10;;;;;;;-145.69;100.00;71205.41;4994879;28;20244;-79
2022/06/09 00:21:06;;;;;;;1.77;1.17;;;;;;;-145.69;100.00;71203.41;4995184;28;20204;-79
2022/06/09 00:23:33;;;;;;;1.40;1.17;;;;;;;-145.69;100.00;71213.38;4994946;28;20252;-79
2022/06/09 00:25:59;;;;;;;1.23;1.13;;;;;;;-145.69;100.00;71215.34;4994384;28;20212;-79
2022/06/09 00:28:27;;;;;;;1.67;1.10;;;;;;;-145.69;100.00;71229.28;4994766;28;20216;-79
2022/06/09 00:30:54;;;;;;;2.67;1.40;;;;;;;-145.69;100.00;71233.25;4994883;28;20253;-79
2022/06/09 00:33:20;;;;;;;5.43;1.00;;;;;;;-145.69;100.00;71263.09;4994527;28;20287;-79
2022/06/09 00:35:47;;;;;;;2.30;1.20;;;;;;;-145.69;100.00;71263.09;4994919;28;20289;-79
2022/06/09 00:38:13;;;;;;;2.00;1.10;;;;;;;-145.69;100.00;71267.09;4994407;28;20193;-78
2022/06/09 00:40:40;;;;;;;5.97;1.50;;;;;;;-145.69;100.00;71261.13;4994335;28;20202;-79
2022/06/09 00:43:07;;;;;;;1.33;1.20;;;;;;;-145.69;100.00;71263.09;4994361;28;20217;-79
2022/06/09 00:45:38;;;;;;;2.00;1.37;;;;;;;-145.69;100.00;71255.16;4994561;28;20300;-78
2022/06/09 00:48:37;;;;;;;1.70;1.50;;;;;;;-145.69;100.00;71239.22;4994393;28;20200;-79
2022/06/09 00:51:12;;;;;;;3.20;1.70;;;;;;;-145.69;100.00;71231.28;4972024;28;20275;-79
2022/06/09 00:53:41;;;;;;;2.50;1.53;;;;;;;-145.69;100.00;71227.28;4994423;28;20220;-79
2022/06/09 00:56:09;;;;;;;1.93;1.60;;;;;;;-145.69;100.00;71215.34;4993670;28;20259;-79
2022/06/09 00:58:38;;;;;;;3.37;1.50;;;;;;;-145.69;100.00;71215.34;4994292;28;20198;-79
2022/06/09 01:01:09;;;;;;;2.77;1.50;;;;;;;-145.69;100.00;71209.38;4994046;28;20209;-80
2022/06/09 01:03:43;;;;;;;4.10;1.23;;;;;;;-145.69;100.00;71211.38;4994318;28;20197;-79
2022/06/09 01:09:31;;;;;;;1.97;1.30;;;;;;;-145.69;100.00;71209.38;4975268;28;20205;-79
2022/06/09 01:11:59;;;;;;;4.03;1.37;;;;;;;-145.69;100.00;71207.38;4990309;28;20201;-79
2022/06/09 01:14:28;;;;;;;3.17;1.20;;;;;;;-145.69;100.00;71207.38;4994213;28;20229;-79
2022/06/09 01:17:09;;;;;;;2.47;1.40;;;;;;;-145.69;100.00;71201.41;4994232;28;20208;-79
2022/06/09 01:20:00;;;;;;;1.63;1.30;;;;;;;-145.69;100.00;71199.44;4993764;28;20247;-79
2022/06/09 01:22:50;;;;;;;2.20;1.30;;;;;;;-145.69;100.00;71197.44;4993818;28;20201;-79
2022/06/09 01:25:38;;;;;;;3.07;1.30;;;;;;;-145.69;100.00;71191.47;4990776;28;20209;-79
2022/06/09 01:28:22;;;;;;;2.27;1.40;;;;;;;-145.69;100.00;71193.47;4993884;28;20212;-79
2022/06/09 01:30:55;;;;;;;4.10;1.30;;;;;;;-145.69;100.00;71183.50;4993440;28;20220;-79
2022/06/09 01:33:28;;;;;;;1.70;1.30;;;;;;;-145.69;100.00;71195.47;4994059;28;20253;-79
2022/06/09 01:36:02;;;;;;;4.43;1.50;;;;;;;-145.69;100.00;71201.41;4993754;28;20556;-79
2022/06/09 01:38:29;;;;;;;4.20;1.40;;;;;;;-145.69;100.00;71203.41;4993254;28;20205;-79
2022/06/09 01:40:56;;;;;;;2.23;1.40;;;;;;;-145.69;100.00;71207.38;4993437;28;20204;-78
2022/06/09 01:43:23;;;;;;;6.93;1.67;;;;;;;-145.69;100.00;71203.41;4993668;28;20205;-79
2022/06/09 01:46:00;;;;;;;2.57;1.50;;;;;;;-145.69;100.00;71203.41;4993536;28;20298;-78
2022/06/09 01:48:28;;;;;;;3.57;1.50;;;;;;;-145.69;100.00;71199.44;4993527;28;20209;-79
2022/06/09 01:50:59;;;;;;;1.50;1.40;;;;;;;-145.69;100.00;71203.41;4993359;28;20201;-79
2022/06/09 01:53:29;;;;;;;1.83;1.50;;;;;;;-145.69;100.00;71199.44;4993519;28;20232;-79
2022/06/09 01:56:00;;;;;;;5.63;1.50;;;;;;;-145.69;100.00;71203.41;4993451;28;20216;-78
2022/06/09 01:58:32;;;;;;;1.97;1.63;;;;;;;-145.69;100.00;71199.44;4993664;28;20206;-78
2022/06/09 02:01:03;;;;;;;8.57;2.83;;;;;;;-145.69;100.00;71201.41;4993104;28;20197;-79
2022/06/09 02:03:33;;;;;;;2.23;1.60;;;;;;;-145.69;100.00;71199.44;4993594;28;20208;-79
2022/06/09 02:06:03;;;;;;;2.70;1.60;;;;;;;-145.69;100.00;71199.44;4993341;28;20620;-78
2022/06/09 02:08:31;;;;;;;6.87;1.50;;;;;;;-145.69;100.00;71199.44;4997188;28;20703;-78
2022/06/09 02:11:01;;;;;;;2.53;1.93;;;;;;;-145.69;100.00;71203.41;4997304;28;20678;-78
2022/06/09 02:13:32;;;;;;;3.00;2.10;;;;;;;-145.69;100.00;71199.44;4996731;28;20221;-79
2022/06/09 02:16:04;;;;;;;2.22;2.00;;;;;;;-145.69;100.00;71193.47;4997516;28;20205;-79
2022/06/09 02:18:33;;;;;;;5.17;2.00;;;;;;;-145.69;100.00;71191.47;4997478;28;20679;-79
2022/06/09 02:21:05;;;;;;;4.30;2.03;;;;;;;-145.69;100.00;71195.47;4997244;28;20198;-79
2022/06/09 02:23:32;;;;;;;6.13;2.73;;;;;;;-145.69;100.00;71197.44;4996874;28;20556;-79
2022/06/09 02:25:58;;;;;;;3.67;2.33;;;;;;;-145.69;100.00;71209.38;4997121;28;20197;-79
2022/06/09 02:28:25;;;;;;;4.27;2.10;;;;;;;-145.69;100.00;71211.38;4997474;28;20205;-79
2022/06/09 02:30:52;;;;;;;5.20;2.53;;;;;;;-145.69;100.00;71213.38;4996997;28;20220;-79
2022/06/09 02:33:20;;;;;;;5.73;2.80;;;;;;;-145.69;100.00;71223.31;4997140;28;20232;-79
2022/06/09 02:35:47;;;;;;;3.87;2.73;;;;;;;-145.69;100.00;71217.34;4997325;28;20201;-79
2022/06/09 02:38:13;;;;;;;4.30;2.90;;;;;;;-145.69;100.00;71223.31;4996987;28;20213;-79
2022/06/09 02:40:40;;;;;;;6.57;3.07;;;;;;;-145.69;100.00;71223.31;4996766;28;20980;-79
2022/06/09 02:43:06;;;;;;;7.13;3.27;;;;;;;-145.69;100.00;71227.28;4997248;28;20208;-79
2022/06/09 02:45:33;;;;;;;4.40;2.83;;;;;;;-145.69;100.00;71233.25;4996790;28;20208;-78
2022/06/09 02:48:01;;;;;;;5.45;3.70;;;;;;;-145.69;100.00;71227.28;4996150;28;20483;-79
2022/06/09 02:50:29;;;;;;;7.80;3.63;;;;;;;-145.69;100.00;71223.31;4996551;28;20232;-79
2022/06/09 02:52:56;;;;;;;6.17;2.77;;;;;;;-145.69;100.00;71223.31;4997104;28;20537;-79
2022/06/09 02:55:22;;;;;;;4.37;2.60;;;;;;;-145.69;100.00;71215.34;4996765;28;20205;-79
2022/06/09 02:57:49;;;;;;;3.00;2.45;;;;;;;-145.69;100.00;71215.34;4996619;28;20198;-79
2022/06/09 03:00:16;;;;;;;5.43;2.83;;;;;;;-145.69;100.00;71223.31;4996128;28;20205;-79
2022/06/09 03:02:43;;;;;;;4.10;2.90;;;;;;;-145.69;100.00;71225.31;4996614;28;20205;-79
2022/06/09 03:05:10;;;;;;;4.47;3.07;;;;;;;-145.69;100.00;71231.28;4996923;28;20216;-79
2022/06/09 03:07:38;;;;;;;4.73;3.03;;;;;;;-145.69;100.00;71227.28;4996417;28;20202;-79
2022/06/09 03:10:05;;;;;;;4.67;2.97;;;;;;;-145.69;100.00;71233.25;4996612;28;20214;-79
2022/06/09 03:12:32;;;;;;;4.87;3.50;;;;;;;-145.69;100.00;71239.22;4996527;28;20211;-78
2022/06/09 03:14:58;;;;;;;5.27;4.07;;;;;;;-145.69;100.00;71243.22;4996030;28;20240;-79
2022/06/09 03:17:25;;;;;;;6.80;3.37;;;;;;;-145.69;100.00;71249.19;4996148;28;20208;-79
2022/06/09 03:19:51;;;;;;;6.53;3.37;;;;;;;-145.69;100.00;71243.22;4995589;28;20292;-78
2022/06/09 03:22:18;;;;;;;6.20;3.60;;;;;;;-145.69;100.00;71247.19;4996354;28;20655;-79
2022/06/09 03:24:46;;;;;;;8.93;4.00;;;;;;;-145.69;100.00;71251.16;4996183;28;20209;-79
2022/06/09 03:27:13;;;;;;;7.33;4.10;;;;;;;-145.69;100.00;71251.16;4995921;28;20228;-78
2022/06/09 03:29:39;;;;;;;5.70;3.87;;;;;;;-145.69;100.00;71239.22;4996024;28;20567;-79
2022/06/09 03:32:06;;;;;;;6.23;3.67;;;;;;;-145.69;100.00;71251.16;4995985;28;20205;-79
2022/06/09 03:34:33;;;;;;;8.67;3.67;;;;;;;-145.69;100.00;71249.19;4996088;28;20267;-79
2022/06/09 03:36:59;;;;;;;5.50;3.53;;;;;;;-145.69;100.00;71257.13;4995573;28;20467;-78
2022/06/09 03:39:25;;;;;;;8.67;3.37;;;;;;;-145.69;100.00;71253.16;4995669;28;20213;-79
2022/06/09 03:41:53;;;;;;;6.90;3.27;;;;;;;-145.69;100.00;71265.09;4995679;28;20214;-79
2022/06/09 03:44:19;;;;;;;8.20;3.53;;;;;;;-145.69;100.00;71259.13;4996039;28;20209;-78
2022/06/09 03:46:46;;;;;;;7.13;3.70;;;;;;;-145.69;100.00;71267.09;4995991;28;20237;-78
2022/06/09 03:49:12;;;;;;;4.57;3.33;;;;;;;-145.69;100.00;71275.03;4995865;28;20208;-79
2022/06/09 03:51:39;;;;;;;6.73;3.23;;;;;;;-145.69;100.00;71271.06;4995431;28;20200;-79
2022/06/09 03:54:06;;;;;;;7.10;3.47;;;;;;;-145.69;100.00;71275.03;4995630;28;20229;-79
2022/06/09 03:56:32;;;;;;;5.97;3.33;;;;;;;-145.69;100.00;71285.00;4995708;28;20209;-79
2022/06/09 03:59:00;;;;;;;4.60;3.10;;;;;;;-145.69;100.00;71290.97;4995647;28;20209;-79
2022/06/09 04:01:26;;;;;;;4.93;2.87;;;;;;;-145.69;100.00;71294.94;4995579;28;20208;-79
2022/06/09 04:03:53;;;;;;;6.30;3.20;;;;;;;-145.69;100.00;71310.84;4995260;28;20198;-78
2022/06/09 04:06:23;;;;;;;4.97;2.17;;;;;;;-145.69;100.00;71318.81;4995701;28;20228;-78
2022/06/09 04:08:51;;;;;;;2.73;2.20;;;;;;;-145.69;100.00;71330.75;4995590;28;20212;-79
2022/06/09 04:11:18;;;;;;;7.43;2.13;;;;;;;-145.69;100.00;71336.72;4994687;28;20244;-78
2022/06/09 04:13:44;;;;;;;7.50;1.97;;;;;;;-145.69;100.00;71338.72;4995304;28;20229;-78
2022/06/09 04:16:21;;;;;;;4.97;2.73;;;;;;;-145.69;100.00;71344.69;4995136;28;20209;-78
2022/06/09 04:18:48;;;;;;;6.20;2.50;;;;;;;-145.69;100.00;71348.66;4995378;28;20201;-77
2022/06/09 04:21:14;;;;;;;6.50;2.40;;;;;;;-145.69;100.00;71350.66;4994934;28;20568;-76
2022/06/09 04:23:41;;;;;;;7.80;2.60;;;;;;;-145.69;100.00;71354.63;4995136;28;20209;-77
2022/06/09 04:26:07;;;;;;;5.53;2.70;;;;;;;-145.69;100.00;71366.56;4995035;28;20441;-77
2022/06/09 04:28:34;;;;;;;5.53;3.33;;;;;;;-145.69;100.00;71370.56;4994922;28;20206;-77
2022/06/09 04:31:00;;;;;;;5.63;2.70;;;;;;;-145.69;100.00;71380.50;4994899;28;20197;-77
2022/06/09 04:33:28;;;;;;;7.10;2.97;;;;;;;-145.69;100.00;71382.50;4995085;28;20197;-77
2022/06/09 04:35:54;;;;;;;5.28;2.88;;;;;;;-145.69;100.00;71384.47;4994269;28;20482;-77
2022/06/09 04:38:21;;;;;;;9.73;3.03;;;;;;;-145.69;100.00;71382.50;4994192;28;20711;-77
2022/06/09 04:40:47;;;;;;;6.40;3.10;;;;;;;-145.69;100.00;71388.47;4995047;28;20233;-77
2022/06/09 04:43:14;;;;;;;7.83;2.80;;;;;;;-145.69;100.00;71392.44;4994893;28;20572;-77
2022/06/09 04:45:41;;;;;;;4.70;2.90;;;;;;;-145.69;100.00;71386.47;4994265;28;20202;-76
2022/06/09 04:48:09;;;;;;;4.00;3.00;;;;;;;-145.69;100.00;71390.47;4994750;28;20612;-76
2022/06/09 04:50:38;;;;;;;6.97;3.10;;;;;;;-145.69;100.00;71386.47;4994256;28;20670;-77
2022/06/09 04:53:05;;;;;;;11.93;3.43;;;;;;;-145.69;100.00;71376.53;4994783;28;20209;-76
2022/06/09 04:55:32;;;;;;;8.20;3.90;;;;;;;-145.69;100.00;71362.59;4994322;28;20232;-77
2022/06/09 04:57:58;;;;;;;6.90;3.63;;;;;;;-145.69;100.00;71362.59;4994740;28;20198;-77
2022/06/09 05:00:26;;;;;;;8.53;3.80;;;;;;;-145.69;100.00;71358.63;4994372;28;20201;-77
2022/06/09 05:02:53;;;;;;;7.00;3.37;;;;;;;-145.69;100.00;71350.66;4993992;28;20560;-78
2022/06/09 05:05:21;;;;;;;9.47;3.60;;;;;;;-145.69;100.00;71358.63;4994090;28;20209;-78
2022/06/09 05:07:49;;;;;;;10.33;3.60;;;;;;;-145.69;100.00;71330.75;4994221;28;20652;-78
2022/06/09 05:10:16;;;;;;;5.77;3.77;;;;;;;-145.69;100.00;71314.84;4994304;28;20683;-78
2022/06/09 05:12:43;;;;;;;5.53;2.60;;;;;;;-145.69;100.00;71306.88;4994208;28;20202;-78
2022/06/09 05:15:13;;;;;;;4.60;2.97;;;;;;;-145.69;100.00;71275.03;4993521;28;20711;-78
2022/06/09 05:17:39;;;;;;;6.03;2.93;;;;;;;-145.69;100.00;71277.03;4994180;28;20205;-78
2022/06/09 05:20:07;;;;;;;8.50;2.57;;;;;;;-145.69;100.00;71279.03;4994118;28;20596;-78
2022/06/09 05:22:33;;;;;;;3.37;1.90;;;;;;;-145.69;100.00;71273.06;4993920;28;20213;-78
2022/06/09 05:25:01;;;;;;;5.13;2.05;;;;;;;-145.69;100.00;71271.06;4993968;28;20660;-78
2022/06/09 05:27:28;;;;;;;5.17;1.93;;;;;;;-145.69;100.00;71294.94;4993688;28;20194;-79
2022/06/09 05:29:54;;;;;;;4.13;1.60;;;;;;;-145.69;100.00;71283.00;4994110;28;20549;-78
2022/06/09 05:32:21;;;;;;;3.57;2.00;;;;;;;-145.69;100.00;71314.84;4993857;28;20212;-78
2022/06/09 05:34:48;;;;;;;3.50;1.73;;;;;;;-145.69;100.00;71308.88;4993957;28;20240;-78
2022/06/09 05:37:15;;;;;;;7.73;2.50;;;;;;;-145.69;100.00;71310.84;4993994;28;20209;-78
2022/06/09 05:45:22;;;;;;;5.30;2.03;;;;;;;-145.69;100.00;71350.66;4986876;28;20217;-78
2022/06/09 05:47:49;;;;;;;6.30;2.13;;;;;;;-145.69;100.00;71358.63;4993532;28;20320;-78
2022/06/09 05:50:15;;;;;;;7.97;2.27;;;;;;;-145.69;100.00;71376.53;4993572;28;20205;-78
2022/06/09 05:52:42;;;;;;;6.23;2.60;;;;;;;-145.69;100.00;71370.56;4993598;28;20278;-78
2022/06/09 05:55:09;;;;;;;9.50;2.67;;;;;;;-145.69;100.00;71386.47;4993539;28;20236;-78
2022/06/09 05:57:37;;;;;;;11.20;2.67;;;;;;;-145.69;100.00;71382.50;4993930;28;20611;-79
2022/06/09 06:00:06;;;;;;;8.57;3.07;;;;;;;-145.69;100.00;71360.59;4993770;28;20212;-78
2022/06/09 06:02:33;;;;;;;9.17;2.50;;;;;;;-145.69;100.00;71364.59;4993493;28;20198;-78
2022/06/09 06:04:59;;;;;;;5.00;2.00;;;;;;;-145.69;100.00;71374.53;4993475;28;20228;-78
2022/06/09 06:07:26;;;;;;;5.57;2.07;;;;;;;-145.69;100.00;71360.59;4993632;28;20232;-78
2022/06/09 06:09:52;;;;;;;8.33;2.60;;;;;;;-145.69;100.00;71346.69;4993432;28;20660;-78
2022/06/09 06:12:20;;;;;;;5.53;2.27;;;;;;;-145.69;100.00;71358.63;4993355;28;20220;-79
2022/06/09 06:14:47;;;;;;;4.40;2.33;;;;;;;-145.69;100.00;71346.69;4993193;28;20221;-79
2022/06/09 06:17:14;;;;;;;5.37;2.00;;;;;;;-145.69;100.00;71308.88;4993419;28;20204;-79
2022/06/09 06:19:41;;;;;;;7.65;2.00;;;;;;;-145.69;100.00;71277.03;4993489;28;20205;-79
2022/06/09 06:22:07;;;;;;;3.17;1.60;;;;;;;-145.69;100.00;71237.25;4992876;28;20198;-79
2022/06/09 06:24:34;;;;;;;6.57;1.30;;;;;;;-145.69;100.00;71259.13;4993384;28;20212;-79
2022/06/09 06:27:00;;;;;;;7.88;1.65;;;;;;;-145.69;100.00;71245.19;4992990;28;20198;-79
2022/06/09 06:29:27;;;;;;;8.77;1.58;;;;;;;-145.69;100.00;71302.91;4992868;28;20203;-79
2022/06/09 06:31:54;;;;;;;6.23;1.80;;;;;;;-145.69;100.00;71314.84;4991320;28;20197;-78
2022/06/09 06:34:22;;;;;;;4.65;1.70;;;;;;;-145.69;100.00;71298.94;4992916;28;20225;-78
2022/06/09 06:36:49;;;;;;;4.03;1.70;;;;;;;-145.69;100.00;71233.25;4993222;28;20197;-79
2022/06/09 06:39:15;;;;;;;7.35;1.77;;;;;;;-145.69;100.00;71121.84;4991934;28;20625;-78
2022/06/09 06:41:42;;;;;;;5.70;1.38;;;;;;;-145.69;100.00;71127.81;4993416;28;20201;-79
2022/06/09 06:44:09;;;;;;;3.25;1.40;;;;;;;-145.69;100.00;71169.59;4993409;28;20206;-78
2022/06/09 06:46:36;;;;;;;2.85;1.38;;;;;;;-145.69;100.00;71117.84;4993178;28;20596;-79
2022/06/09 06:49:04;;;;;;;4.47;1.80;;;;;;;-145.69;100.00;71151.69;4993195;28;20212;-79
2022/06/09 06:51:33;;;;;;;5.80;1.30;;;;;;;-145.69;100.00;71201.41;4990599;28;20197;-79
2022/06/09 06:53:59;;;;;;;3.78;1.50;;;;;;;-145.69;100.00;71233.25;4995125;28;20240;-79
2022/06/09 06:56:25;;;;;;;6.25;1.40;;;;;;;-145.69;100.00;71161.63;4994816;28;20467;-79
2022/06/09 06:58:52;;;;;;;7.22;1.42;;;;;;;-145.69;100.00;71147.69;4995467;28;20198;-79
2022/06/09 07:01:18;;;;;;;5.80;1.10;;;;;;;-145.69;100.00;71123.81;4996399;28;20201;-79
2022/06/09 07:03:45;;;;;;;5.00;1.00;;;;;;;-145.69;100.00;71125.81;4996079;28;20569;-79
2022/06/09 07:06:12;;;;;;;7.00;1.42;;;;;;;-145.69;100.00;71105.91;4996444;28;20209;-79
2022/06/09 07:08:39;;;;;;;7.50;1.38;;;;;;;-145.69;100.00;71111.88;4995193;28;20198;-80
2022/06/09 07:11:08;;;;;;;5.78;1.25;;;;;;;-145.69;100.00;71105.91;4995711;28;20221;-81
2022/06/09 07:13:36;;;;;;;3.83;1.30;;;;;;;-145.69;100.00;71147.69;4995444;28;20205;-80
2022/06/09 07:16:03;;;;;;;6.68;1.10;;;;;;;-145.69;100.00;71209.38;4994386;28;20225;-82
2022/06/09 07:18:30;;;;;;;4.13;1.17;;;;;;;-145.69;100.00;71251.16;4995850;28;20599;-82
2022/06/09 07:20:57;;;;;;;5.32;1.20;;;;;;;-145.69;100.00;71215.34;4995707;28;20206;-81
2022/06/09 07:23:35;;;;;;;4.88;1.42;;;;;;;-145.69;100.00;71195.47;4995887;28;20202;-81
2022/06/09 07:26:04;;;;;;;8.38;1.83;;;;;;;-145.69;100.00;71187.50;4995532;28;20209;-82
2022/06/09 07:28:31;;;;;;;4.35;1.13;;;;;;;-145.69;100.00;71167.59;4995756;28;20292;-83
2022/06/09 07:30:59;;;;;;;4.47;1.27;;;;;;;-145.69;100.00;71145.72;4996043;28;20208;-84
2022/06/09 07:33:26;;;;;;;7.72;1.58;;;;;;;-145.69;100.00;71157.66;4996542;28;20206;-83
2022/06/09 07:35:54;;;;;;;7.55;1.27;;;;;;;-145.69;100.00;71105.91;4994734;28;20233;-84
2022/06/09 07:38:21;;;;;;;3.67;1.02;;;;;;;-145.69;100.00;71135.75;4996200;28;20202;-83
2022/06/09 07:40:48;;;;;;;5.47;1.67;;;;;;;-145.69;100.00;71092.00;4996479;28;20198;-84
2022/06/09 07:43:20;;;;;;;6.53;1.25;;;;;;;-145.69;100.00;71151.69;4993558;28;20250;-84
2022/06/09 07:45:48;;;;;;;4.32;1.20;;;;;;;-145.69;100.00;71147.69;4995254;28;20245;-82
2022/06/09 07:48:15;;;;;;;5.55;1.30;;;;;;;-145.69;100.00;71199.44;4997338;28;20591;-84
2022/06/09 07:50:42;;;;;;;4.65;1.13;;;;;;;-145.69;100.00;71229.28;4997463;28;20201;-84
2022/06/09 07:53:08;;;;;;;4.90;1.10;;;;;;;-145.69;100.00;71263.09;4996699;28;20548;-84
2022/06/09 07:55:35;;;;;;;4.70;1.38;;;;;;;-145.69;100.00;71231.28;4997267;28;20236;-84
2022/06/09 07:58:01;;;;;;;5.50;1.40;;;;;;;-145.69;100.00;71205.41;4996267;28;20208;-83
2022/06/09 08:00:29;;;;;;;6.03;1.20;;;;;;;-145.69;100.00;71187.50;4996249;28;20204;-85
2022/06/09 08:02:56;;;;;;;3.35;1.02;;;;;;;-145.69;100.00;71215.34;4996145;28;20197;-81
2022/06/09 08:05:24;;;;;;;7.55;1.65;;;;;;;-145.69;100.00;71259.13;4995516;28;20556;-81
2022/06/09 08:07:51;;;;;;;6.25;1.23;;;;;;;-145.69;100.00;71205.41;4995785;28;20213;-85
2022/06/09 08:10:20;;;;;;;6.80;1.05;;;;;;;-145.69;100.00;71123.81;4995088;28;20452;-84
2022/06/09 08:12:47;;;;;;;9.10;1.10;;;;;;;-145.69;100.00;71111.88;4995534;28;20276;-81
2022/06/09 08:15:14;;;;;;;3.92;0.82;;;;;;;-145.69;100.00;71115.88;4996058;28;20236;-84
2022/06/09 08:17:42;;;;;;;2.05;0.90;;;;;;;-145.69;100.00;71090.00;4996371;28;20209;-84
2022/06/09 08:20:10;;;;;;;4.40;1.20;;;;;;;-145.69;100.00;71048.22;4995266;28;20675;-86
2022/06/09 08:22:40;;;;;;;5.18;1.30;;;;;;;-145.69;100.00;71090.00;4996158;28;20205;-85
2022/06/09 08:25:08;;;;;;;10.02;1.98;;;;;;;-145.69;100.00;71066.13;4996260;28;20344;-85
2022/06/09 08:27:35;;;;;;;3.38;0.88;;;;;;;-145.69;100.00;71101.94;4996043;28;20244;-85
2022/06/09 08:30:02;;;;;;;4.00;1.20;;;;;;;-145.69;100.00;71058.16;4995102;28;20193;-86
2022/06/09 08:32:30;;;;;;;6.78;1.48;;;;;;;-145.69;96.72;71026.31;4995619;28;20208;-86
2022/06/09 08:35:09;;;;;;;4.85;1.08;;;;;;;-145.69;100.00;70972.59;4995640;28;20239;-86
2022/06/09 08:37:35;;;;;;;8.27;1.20;;;;;;;-145.69;92.50;71052.19;4995670;28;20655;-86
2022/06/09 08:40:02;;;;;;;4.60;0.90;;;;;;;-145.69;91.46;71062.13;4993188;28;20638;-83
2022/06/09 08:42:39;;;;;;;7.57;1.10;;;;;;;-145.69;92.56;71101.94;4995147;28;20451;-84
2022/06/09 08:45:11;;;;;;;4.65;0.98;;;;;;;-145.69;95.97;71147.69;4995764;28;20205;-86
2022/06/09 08:47:40;;;;;;;4.38;1.13;;;;;;;-145.69;99.39;71139.75;4996362;28;20248;-85
2022/06/09 08:50:19;;;;;;;8.25;1.50;;;;;;;-145.69;95.20;71115.88;4996417;28;20292;-85
2022/06/09 08:52:52;;;;;;;6.93;1.05;;;;;;;-145.69;89.38;71117.84;4995026;28;20205;-84
2022/06/09 08:55:26;;;;;;;5.70;0.90;;;;;;;-145.69;91.30;71111.88;4994985;28;20691;-82
2022/06/09 08:57:58;;;;;;;3.20;0.70;;;;;;;-145.69;85.57;71078.06;4995334;28;20212;-80
2022/06/09 09:00:30;;;;;;;3.42;0.77;;;;;;;-145.69;89.76;71095.97;4995076;28;20193;-83
2022/06/09 09:03:03;;;;;;;7.47;1.20;;;;;;;-145.69;95.37;71054.19;4995502;28;20212;-83
2022/06/09 09:05:37;;;;;;;3.65;1.00;;;;;;;-145.69;95.54;71004.44;4995014;28;20209;-83
2022/06/09 09:08:06;;;;;;;6.10;0.90;;;;;;;-145.69;93.13;70948.72;4994542;28;20233;-84
2022/06/09 09:10:43;;;;;;;5.10;1.15;;;;;;;-145.69;86.92;70972.59;4993994;28;20201;-85
2022/06/09 09:13:25;;;;;;;5.07;0.80;;;;;;;-145.69;77.50;70944.75;4993368;28;20201;-84
2022/06/09 09:15:55;;;;;;;5.20;0.75;;;;;;;-145.69;79.08;70968.63;4993897;28;20267;-83
2022/06/09 09:18:28;;;;;;;5.93;1.20;;;;;;;-145.69;81.19;70940.78;4993041;28;20205;-83
2022/06/09 09:21:11;;;;;;;3.22;0.80;;;;;;;-145.69;80.74;70968.63;4994070;28;20205;-82
2022/06/09 09:23:46;;;;;;;5.00;0.90;;;;;;;-145.69;81.44;70954.69;4994146;28;20612;-82
2022/06/09 09:26:20;;;;;;;3.92;1.13;;;;;;;-145.69;83.54;70912.91;4994054;28;20250;-84
2022/06/09 09:28:49;;;;;;;7.68;1.15;;;;;;;-145.69;83.30;70916.91;4994508;28;20205;-84
2022/06/09 09:31:28;;;;;;;7.40;0.98;;;;;;;-145.69;78.73;70968.63;4998553;28;20556;-84
2022/06/09 09:33:56;;;;;;;3.08;1.00;;;;;;;-145.69;87.46;71074.09;4996933;28;20595;-82
2022/06/09 09:36:26;;;;;;;4.57;1.00;;;;;;;-145.69;88.15;71115.88;4997431;28;20226;-82
2022/06/09 09:38:57;;;;;;;4.30;0.98;;;;;;;-145.69;90.32;71135.75;4996258;28;20288;-84
2022/06/09 09:41:29;;;;;;;2.60;0.98;;;;;;;-145.69;88.12;71052.19;4992377;28;20206;-85
2022/06/09 09:43:55;;;;;;;3.53;1.15;;;;;;;-145.69;87.95;71056.16;4992942;28;20592;-83
2022/06/09 09:46:28;;;;;;;4.03;1.05;;;;;;;-145.69;88.89;71074.09;4993151;28;20475;-82
2022/06/09 09:48:58;;;;;;;5.15;1.20;;;;;;;-145.69;88.60;71052.19;4994228;28;20197;-82
2022/06/09 09:51:35;;;;;;;5.13;1.10;;;;;;;-145.69;86.46;71058.16;4994230;28;20650;-83
2022/06/09 09:54:10;;;;;;;5.65;0.85;;;;;;;-145.69;91.33;71028.31;4993620;28;20209;-84
2022/06/09 09:56:38;;;;;;;3.50;0.68;;;;;;;-145.69;87.56;71060.16;4993890;28;20565;-82
2022/06/09 09:59:23;;;;;;;3.28;0.90;;;;;;;-145.69;88.83;71020.34;4993744;28;20297;-83
2022/06/09 10:10:13;;;;;;;5.43;1.00;;;;;;;-145.69;91.12;71092.00;4993798;28;20210;-83
2022/06/09 10:12:40;;;;;;;2.72;1.13;;;;;;;-145.69;90.31;71058.16;4993603;28;20202;-82
2022/06/09 10:15:16;;;;;;;3.72;1.00;;;;;;;-145.69;86.92;71000.47;4993541;28;20205;-85
2022/06/09 10:17:53;;;;;;;5.35;0.90;;;;;;;-145.69;82.15;70942.75;4993830;28;20205;-82
2022/06/09 10:20:34;;;;;;;3.33;0.80;;;;;;;-145.69;82.59;70982.56;4993703;28;20208;-84
2022/06/09 10:23:19;;;;;;;2.13;0.80;;;;;;;-145.69;85.00;70972.59;4993414;28;20216;-84
2022/06/09 10:25:52;;;;;;;4.55;1.13;;;;;;;-145.69;83.48;70956.69;4993732;28;20205;-83
2022/06/09 10:28:30;;;;;;;4.22;1.00;;;;;;;-145.69;79.88;70950.72;4994662;28;20436;-81
2022/06/09 10:31:03;;;;;;;4.13;1.00;;;;;;;-145.69;72.54;71010.41;4997182;28;20220;-83
2022/06/09 10:33:36;;;;;;;3.65;0.90;;;;;;;-145.69;82.76;70928.84;4997553;28;20205;-83
2022/06/09 10:36:11;;;;;;;3.83;0.73;;;;;;;-145.69;74.78;70829.34;4996753;28;20224;-83
2022/06/09 10:38:44;;;;;;;2.67;0.70;;;;;;;-145.69;72.08;70920.88;4997331;28;20208;-81
2022/06/09 10:41:13;;;;;;;3.95;0.90;;;;;;;-145.69;74.04;71088.00;4997135;28;20205;-82
2022/06/09 10:43:45;;;;;;;1.95;0.77;;;;;;;-145.69;82.70;71239.22;4997308;28;20209;-81
2022/06/09 10:46:20;;;;;;;3.55;0.88;;;;;;;-145.69;83.99;71273.06;4996573;28;20292;-79
2022/06/09 10:57:32;;;;;;;5.93;1.20;;;;;;;-145.69;98.64;71370.56;4981844;28;20323;-83
2022/06/09 11:00:08;;;;;;;2.97;0.90;;;;;;;-145.69;97.75;71320.81;4996762;28;20216;-83
2022/06/09 11:02:35;;;;;;;3.17;0.82;;;;;;;-145.69;93.41;71316.84;4996596;28;20531;-85
2022/06/09 11:05:04;;;;;;;1.50;0.85;;;;;;;-145.69;94.16;71265.09;4996853;28;20206;-84
2022/06/09 11:07:44;;;;;;;6.50;1.00;;;;;;;-145.69;91.33;71239.22;4996767;28;20214;-84
2022/06/09 11:10:23;;;;;;;3.13;1.00;;;;;;;-145.69;92.92;71199.44;4996800;28;20560;-84
2022/06/09 11:13:03;;;;;;;2.00;0.75;;;;;;;-145.69;85.07;71163.63;4996867;28;20568;-84
2022/06/09 11:15:35;;;;;;;1.15;0.75;;;;;;;-145.69;83.38;71161.63;4996674;28;20209;-85
2022/06/09 11:18:20;;;;;;;2.25;0.90;;;;;;;-145.69;81.14;71121.84;4996539;28;20212;-84
2022/06/09 11:20:58;;;;;;;5.65;0.90;;;;;;;-145.69;84.34;71195.47;4977031;28;20206;-85
2022/06/09 11:23:52;;;;;;;6.28;1.10;;;;;;;-145.69;83.65;71113.88;4977192;28;20209;-85
2022/06/09 11:26:33;;;;;;;2.17;0.70;;;;;;;-145.69;78.92;71056.16;4976846;28;20748;-85
2022/06/09 11:29:12;;;;;;;1.70;0.55;;;;;;;-145.69;74.51;70964.66;4977239;28;20209;-85
2022/06/09 11:31:54;;;;;;;1.90;0.90;;;;;;;-145.69;74.43;70885.06;4988671;28;20224;-85
2022/06/09 11:34:40;;;;;;;2.15;0.50;;;;;;;-145.69;72.83;70817.41;4996098;28;20603;-84
2022/06/09 11:37:21;;;;;;;2.40;0.75;;;;;;;-145.69;74.34;70877.09;4995857;28;20253;-84
2022/06/09 11:39:57;;;;;;;1.70;0.88;;;;;;;-145.69;70.54;70761.72;4994922;28;20208;-83
2022/06/09 11:42:41;;;;;;;3.03;0.93;;;;;;;-145.69;65.70;70797.53;4996143;28;20272;-84
2022/06/09 11:45:21;;;;;;;2.05;0.70;;;;;;;-145.69;73.14;70823.38;4982384;28;20564;-82
2022/06/09 11:47:48;;;;;;;6.75;0.73;;;;;;;-145.69;69.20;70809.47;4995775;28;20255;-83
2022/06/09 11:50:19;;;;;;;1.95;0.77;;;;;;;-145.69;66.45;70914.91;4996148;28;20205;-84